sensor_id;sensor_type;location;lat;lon;timestamp;temperature;humidity
17381;DHT22;8808;52.478;13.378;2022-07-23T00:02:25;19.40;99.90
17381;DHT22;8808;52.478;13.378;2022-07-23T00:04:52;19.50;99.90
17381;DHT22;8808;52.478;13.378;2022-07-23T00:07:20;19.50;99.90
17381;DHT22;8808;52.478;13.378;2022-07-23T00:09:47;19.50;99.90
17381;DHT22;8808;52.478;13.378;2022-07-23T00:12:14;19.40;99.90
17381;DHT22;8808;52.478;13.378;2022-07-23T00:14:40;19.40;99.90
17381;DHT22;8808;52.478;13.378;2022-07-23T00:17:08;19.30;99.90
17381;DHT22;8808;52.478;13.378;2022-07-23T00:19:34;19.30;99.90
17381;DHT22;8808;52.478;13.378;2022-07-23T00:22:01;19.30;99.90
17381;DHT22;8808;52.478;13.378;2022-07-23T00:24:30;19.30;99.90
17381;DHT22;8808;52.478;13.378;2022-07-23T00:26:57;19.30;99.90
17381;DHT22;8808;52.478;13.378;2022-07-23T00:29:23;19.30;99.90
17381;DHT22;8808;52.478;13.378;2022-07-23T00:31:50;19.40;99.90
17381;DHT22;8808;52.478;13.378;2022-07-23T00:34:17;19.40;99.90
17381;DHT22;8808;52.478;13.378;2022-07-23T00:36:44;19.50;99.90
17381;DHT22;8808;52.478;13.378;2022-07-23T00:39:11;19.50;99.90
17381;DHT22;8808;52.478;13.378;2022-07-23T00:41:39;19.50;99.90
17381;DHT22;8808;52.478;13.378;2022-07-23T00:44:17;19.40;99.90
17381;DHT22;8808;52.478;13.378;2022-07-23T00:46:48;19.40;99.90
17381;DHT22;8808;52.478;13.378;2022-07-23T00:49:15;19.40;99.90
17381;DHT22;8808;52.478;13.378;2022-07-23T00:51:43;19.40;99.90
17381;DHT22;8808;52.478;13.378;2022-07-23T00:54:10;19.30;99.90
17381;DHT22;8808;52.478;13.378;2022-07-23T00:56:38;19.30;99.90
17381;DHT22;8808;52.478;13.378;2022-07-23T00:59:05;19.10;99.90
17381;DHT22;8808;52.478;13.378;2022-07-23T01:04:08;19.20;99.90
17381;DHT22;8808;52.478;13.378;2022-07-23T01:06:37;19.20;99.90
17381;DHT22;8808;52.478;13.378;2022-07-23T01:09:05;19.30;99.90
17381;DHT22;8808;52.478;13.378;2022-07-23T01:11:33;19.20;99.90
17381;DHT22;8808;52.478;13.378;2022-07-23T01:14:08;19.20;99.90
17381;DHT22;8808;52.478;13.378;2022-07-23T01:16:35;19.10;99.90
17381;DHT22;8808;52.478;13.378;2022-07-23T01:19:01;19.20;99.90
17381;DHT22;8808;52.478;13.378;2022-07-23T01:21:30;19.20;99.90
17381;DHT22;8808;52.478;13.378;2022-07-23T01:23:58;19.30;99.90
17381;DHT22;8808;52.478;13.378;2022-07-23T01:26:25;19.20;99.90
17381;DHT22;8808;52.478;13.378;2022-07-23T01:28:52;19.10;99.90
17381;DHT22;8808;52.478;13.378;2022-07-23T01:31:19;19.10;99.90
17381;DHT22;8808;52.478;13.378;2022-07-23T01:33:46;19.10;99.90
17381;DHT22;8808;52.478;13.378;2022-07-23T01:36:13;19.10;99.90
17381;DHT22;8808;52.478;13.378;2022-07-23T01:41:08;18.80;99.90
17381;DHT22;8808;52.478;13.378;2022-07-23T01:43:35;18.70;99.90
17381;DHT22;8808;52.478;13.378;2022-07-23T01:46:02;18.70;99.90
17381;DHT22;8808;52.478;13.378;2022-07-23T01:48:29;18.80;99.90
17381;DHT22;8808;52.478;13.378;2022-07-23T01:50:56;18.80;99.90
17381;DHT22;8808;52.478;13.378;2022-07-23T01:53:23;18.80;99.90
17381;DHT22;8808;52.478;13.378;2022-07-23T01:55:49;18.90;99.90
17381;DHT22;8808;52.478;13.378;2022-07-23T01:58:18;18.90;99.90
17381;DHT22;8808;52.478;13.378;2022-07-23T02:00:45;19.00;99.90
17381;DHT22;8808;52.478;13.378;2022-07-23T02:03:11;19.10;99.90
17381;DHT22;8808;52.478;13.378;2022-07-23T02:05:38;19.00;99.90
17381;DHT22;8808;52.478;13.378;2022-07-23T02:08:05;19.00;99.90
17381;DHT22;8808;52.478;13.378;2022-07-23T02:10:32;19.00;99.90
17381;DHT22;8808;52.478;13.378;2022-07-23T02:12:59;19.00;99.90
17381;DHT22;8808;52.478;13.378;2022-07-23T02:15:28;19.00;99.90
17381;DHT22;8808;52.478;13.378;2022-07-23T02:17:55;19.00;99.90
17381;DHT22;8808;52.478;13.378;2022-07-23T02:20:22;19.00;99.90
17381;DHT22;8808;52.478;13.378;2022-07-23T02:22:49;18.90;99.90
17381;DHT22;8808;52.478;13.378;2022-07-23T02:25:16;19.00;99.90
17381;DHT22;8808;52.478;13.378;2022-07-23T02:27:43;19.00;99.90
17381;DHT22;8808;52.478;13.378;2022-07-23T02:30:11;19.00;99.90
17381;DHT22;8808;52.478;13.378;2022-07-23T02:32:39;18.90;99.90
17381;DHT22;8808;52.478;13.378;2022-07-23T02:35:07;19.00;99.90
17381;DHT22;8808;52.478;13.378;2022-07-23T02:37:34;19.00;99.90
17381;DHT22;8808;52.478;13.378;2022-07-23T02:40:01;18.80;99.90
17381;DHT22;8808;52.478;13.378;2022-07-23T02:42:27;18.80;99.90
17381;DHT22;8808;52.478;13.378;2022-07-23T02:44:54;18.70;99.90
17381;DHT22;8808;52.478;13.378;2022-07-23T02:47:21;18.80;99.90
17381;DHT22;8808;52.478;13.378;2022-07-23T02:49:49;18.70;99.90
17381;DHT22;8808;52.478;13.378;2022-07-23T02:52:16;18.70;99.90
17381;DHT22;8808;52.478;13.378;2022-07-23T02:54:43;18.70;99.90
17381;DHT22;8808;52.478;13.378;2022-07-23T02:57:10;18.70;99.90
17381;DHT22;8808;52.478;13.378;2022-07-23T02:59:37;18.60;99.90
17381;DHT22;8808;52.478;13.378;2022-07-23T03:02:04;18.60;99.90
17381;DHT22;8808;52.478;13.378;2022-07-23T03:04:30;18.70;99.90
17381;DHT22;8808;52.478;13.378;2022-07-23T03:06:59;18.70;99.90
17381;DHT22;8808;52.478;13.378;2022-07-23T03:11:53;18.60;99.90
17381;DHT22;8808;52.478;13.378;2022-07-23T03:14:20;18.70;99.90
17381;DHT22;8808;52.478;13.378;2022-07-23T03:16:46;18.70;99.90
17381;DHT22;8808;52.478;13.378;2022-07-23T03:19:15;18.60;99.90
17381;DHT22;8808;52.478;13.378;2022-07-23T03:21:42;18.60;99.90
17381;DHT22;8808;52.478;13.378;2022-07-23T03:24:10;18.60;99.90
17381;DHT22;8808;52.478;13.378;2022-07-23T03:26:37;18.60;99.90
17381;DHT22;8808;52.478;13.378;2022-07-23T03:29:05;18.60;99.90
17381;DHT22;8808;52.478;13.378;2022-07-23T03:31:32;18.60;99.90
17381;DHT22;8808;52.478;13.378;2022-07-23T03:33:59;18.60;99.90
17381;DHT22;8808;52.478;13.378;2022-07-23T03:36:26;18.60;99.90
17381;DHT22;8808;52.478;13.378;2022-07-23T03:38:53;18.70;99.90
17381;DHT22;8808;52.478;13.378;2022-07-23T03:41:21;18.70;99.90
17381;DHT22;8808;52.478;13.378;2022-07-23T03:43:48;18.80;99.90
17381;DHT22;8808;52.478;13.378;2022-07-23T03:46:15;18.80;99.90
17381;DHT22;8808;52.478;13.378;2022-07-23T03:48:42;19.00;99.90
17381;DHT22;8808;52.478;13.378;2022-07-23T03:51:09;18.80;99.90
17381;DHT22;8808;52.478;13.378;2022-07-23T03:53:36;18.90;99.90
17381;DHT22;8808;52.478;13.378;2022-07-23T03:56:03;19.40;99.90
17381;DHT22;8808;52.478;13.378;2022-07-23T03:58:31;19.20;99.90
17381;DHT22;8808;52.478;13.378;2022-07-23T04:00:58;18.80;99.90
17381;DHT22;8808;52.478;13.378;2022-07-23T04:03:25;18.90;99.90
17381;DHT22;8808;52.478;13.378;2022-07-23T04:05:52;19.00;99.90
17381;DHT22;8808;52.478;13.378;2022-07-23T04:08:19;18.80;99.90
17381;DHT22;8808;52.478;13.378;2022-07-23T04:10:45;18.70;99.90
17381;DHT22;8808;52.478;13.378;2022-07-23T04:13:12;18.70;99.90
17381;DHT22;8808;52.478;13.378;2022-07-23T04:15:41;18.50;99.90
17381;DHT22;8808;52.478;13.378;2022-07-23T04:18:07;18.60;99.90
17381;DHT22;8808;52.478;13.378;2022-07-23T04:20:34;18.50;99.90
17381;DHT22;8808;52.478;13.378;2022-07-23T04:23:01;18.30;99.90
17381;DHT22;8808;52.478;13.378;2022-07-23T04:25:28;18.20;99.90
17381;DHT22;8808;52.478;13.378;2022-07-23T04:27:55;18.10;99.90
17381;DHT22;8808;52.478;13.378;2022-07-23T04:30:22;18.10;99.90
17381;DHT22;8808;52.478;13.378;2022-07-23T04:32:50;18.10;99.90
17381;DHT22;8808;52.478;13.378;2022-07-23T04:35:17;18.20;99.90
17381;DHT22;8808;52.478;13.378;2022-07-23T04:37:44;18.30;99.90
17381;DHT22;8808;52.478;13.378;2022-07-23T04:40:12;18.00;99.90
17381;DHT22;8808;52.478;13.378;2022-07-23T04:42:39;17.60;99.90
17381;DHT22;8808;52.478;13.378;2022-07-23T04:45:06;17.40;99.90
17381;DHT22;8808;52.478;13.378;2022-07-23T04:47:33;17.20;99.90
17381;DHT22;8808;52.478;13.378;2022-07-23T04:50:02;16.90;99.90
17381;DHT22;8808;52.478;13.378;2022-07-23T04:52:29;17.10;99.90
17381;DHT22;8808;52.478;13.378;2022-07-23T04:54:55;17.00;99.90
17381;DHT22;8808;52.478;13.378;2022-07-23T04:57:22;16.80;99.90
17381;DHT22;8808;52.478;13.378;2022-07-23T04:59:49;16.80;99.90
17381;DHT22;8808;52.478;13.378;2022-07-23T05:02:16;16.90;99.90
17381;DHT22;8808;52.478;13.378;2022-07-23T05:04:43;16.90;99.90
17381;DHT22;8808;52.478;13.378;2022-07-23T05:07:11;16.90;99.90
17381;DHT22;8808;52.478;13.378;2022-07-23T05:09:38;16.90;99.90
17381;DHT22;8808;52.478;13.378;2022-07-23T05:12:05;16.90;99.90
17381;DHT22;8808;52.478;13.378;2022-07-23T05:14:32;16.80;99.90
17381;DHT22;8808;52.478;13.378;2022-07-23T05:16:59;17.00;99.90
17381;DHT22;8808;52.478;13.378;2022-07-23T05:19:26;16.90;99.90
17381;DHT22;8808;52.478;13.378;2022-07-23T05:24:21;16.70;99.90
17381;DHT22;8808;52.478;13.378;2022-07-23T05:26:48;16.70;99.90
17381;DHT22;8808;52.478;13.378;2022-07-23T05:29:15;16.60;99.90
17381;DHT22;8808;52.478;13.378;2022-07-23T05:31:43;16.60;99.90
17381;DHT22;8808;52.478;13.378;2022-07-23T05:34:10;16.60;99.90
17381;DHT22;8808;52.478;13.378;2022-07-23T05:36:37;16.60;99.90
17381;DHT22;8808;52.478;13.378;2022-07-23T05:39:04;16.50;99.90
17381;DHT22;8808;52.478;13.378;2022-07-23T05:41:32;16.40;99.90
17381;DHT22;8808;52.478;13.378;2022-07-23T05:43:59;16.40;99.90
17381;DHT22;8808;52.478;13.378;2022-07-23T05:46:26;16.40;99.90
17381;DHT22;8808;52.478;13.378;2022-07-23T05:48:53;16.30;99.90
17381;DHT22;8808;52.478;13.378;2022-07-23T05:51:20;16.20;99.90
17381;DHT22;8808;52.478;13.378;2022-07-23T05:53:47;16.40;99.90
17381;DHT22;8808;52.478;13.378;2022-07-23T05:56:14;16.40;99.90
17381;DHT22;8808;52.478;13.378;2022-07-23T05:58:43;16.50;99.90
17381;DHT22;8808;52.478;13.378;2022-07-23T06:01:10;16.30;99.90
17381;DHT22;8808;52.478;13.378;2022-07-23T06:03:38;16.50;99.90
17381;DHT22;8808;52.478;13.378;2022-07-23T06:06:05;16.50;99.90
17381;DHT22;8808;52.478;13.378;2022-07-23T06:08:33;16.30;99.90
17381;DHT22;8808;52.478;13.378;2022-07-23T06:11:00;16.30;99.90
17381;DHT22;8808;52.478;13.378;2022-07-23T06:13:27;16.30;99.90
17381;DHT22;8808;52.478;13.378;2022-07-23T06:15:55;16.40;99.90
17381;DHT22;8808;52.478;13.378;2022-07-23T06:18:22;16.50;99.90
17381;DHT22;8808;52.478;13.378;2022-07-23T06:20:49;16.50;99.90
17381;DHT22;8808;52.478;13.378;2022-07-23T06:23:16;16.60;99.90
17381;DHT22;8808;52.478;13.378;2022-07-23T06:25:43;16.60;99.90
17381;DHT22;8808;52.478;13.378;2022-07-23T06:28:10;16.40;99.90
17381;DHT22;8808;52.478;13.378;2022-07-23T06:30:37;16.40;99.90
17381;DHT22;8808;52.478;13.378;2022-07-23T06:33:05;16.40;99.90
17381;DHT22;8808;52.478;13.378;2022-07-23T06:35:32;16.50;99.90
17381;DHT22;8808;52.478;13.378;2022-07-23T06:38:00;16.30;99.90
17381;DHT22;8808;52.478;13.378;2022-07-23T06:40:27;16.30;99.90
17381;DHT22;8808;52.478;13.378;2022-07-23T06:42:54;16.60;99.90
17381;DHT22;8808;52.478;13.378;2022-07-23T06:45:20;16.60;99.90
17381;DHT22;8808;52.478;13.378;2022-07-23T06:47:47;16.70;99.90
17381;DHT22;8808;52.478;13.378;2022-07-23T06:50:16;16.70;99.90
17381;DHT22;8808;52.478;13.378;2022-07-23T06:52:42;16.70;99.90
17381;DHT22;8808;52.478;13.378;2022-07-23T06:55:09;16.70;99.90
17381;DHT22;8808;52.478;13.378;2022-07-23T06:57:36;16.70;99.90
17381;DHT22;8808;52.478;13.378;2022-07-23T07:00:04;16.60;99.90
17381;DHT22;8808;52.478;13.378;2022-07-23T07:02:31;16.50;99.90
17381;DHT22;8808;52.478;13.378;2022-07-23T07:04:58;16.40;99.90
17381;DHT22;8808;52.478;13.378;2022-07-23T07:07:26;16.40;99.90
17381;DHT22;8808;52.478;13.378;2022-07-23T07:09:53;16.30;99.90
17381;DHT22;8808;52.478;13.378;2022-07-23T07:12:20;16.30;99.90
17381;DHT22;8808;52.478;13.378;2022-07-23T07:14:47;16.40;99.90
17381;DHT22;8808;52.478;13.378;2022-07-23T07:17:14;16.70;99.90
17381;DHT22;8808;52.478;13.378;2022-07-23T07:19:41;16.70;99.90
17381;DHT22;8808;52.478;13.378;2022-07-23T07:22:08;16.70;99.90
17381;DHT22;8808;52.478;13.378;2022-07-23T07:24:36;16.80;99.90
17381;DHT22;8808;52.478;13.378;2022-07-23T07:27:03;16.90;99.90
17381;DHT22;8808;52.478;13.378;2022-07-23T07:29:30;16.80;99.90
17381;DHT22;8808;52.478;13.378;2022-07-23T07:31:57;16.80;99.90
17381;DHT22;8808;52.478;13.378;2022-07-23T07:34:23;16.90;99.90
17381;DHT22;8808;52.478;13.378;2022-07-23T07:36:51;16.80;99.90
17381;DHT22;8808;52.478;13.378;2022-07-23T07:39:18;16.60;99.90
17381;DHT22;8808;52.478;13.378;2022-07-23T07:41:46;16.80;99.90
17381;DHT22;8808;52.478;13.378;2022-07-23T07:44:13;16.60;99.90
17381;DHT22;8808;52.478;13.378;2022-07-23T07:46:40;16.80;99.90
17381;DHT22;8808;52.478;13.378;2022-07-23T07:49:07;16.80;99.90
17381;DHT22;8808;52.478;13.378;2022-07-23T07:51:33;16.90;99.90
17381;DHT22;8808;52.478;13.378;2022-07-23T07:54:01;17.20;99.90
17381;DHT22;8808;52.478;13.378;2022-07-23T07:56:28;17.10;99.90
17381;DHT22;8808;52.478;13.378;2022-07-23T07:58:56;17.10;99.90
17381;DHT22;8808;52.478;13.378;2022-07-23T08:01:23;17.10;99.90
17381;DHT22;8808;52.478;13.378;2022-07-23T08:03:50;17.20;99.90
17381;DHT22;8808;52.478;13.378;2022-07-23T08:06:17;17.30;99.90
17381;DHT22;8808;52.478;13.378;2022-07-23T08:08:44;17.40;99.90
17381;DHT22;8808;52.478;13.378;2022-07-23T08:11:11;17.50;99.90
17381;DHT22;8808;52.478;13.378;2022-07-23T08:13:38;17.70;99.90
17381;DHT22;8808;52.478;13.378;2022-07-23T08:16:06;18.30;99.90
17381;DHT22;8808;52.478;13.378;2022-07-23T08:18:33;18.50;99.90
17381;DHT22;8808;52.478;13.378;2022-07-23T08:21:00;18.70;99.90
17381;DHT22;8808;52.478;13.378;2022-07-23T08:23:27;18.70;99.90
17381;DHT22;8808;52.478;13.378;2022-07-23T08:25:54;18.90;99.90
17381;DHT22;8808;52.478;13.378;2022-07-23T08:28:22;19.00;99.90
17381;DHT22;8808;52.478;13.378;2022-07-23T08:30:49;19.10;99.90
17381;DHT22;8808;52.478;13.378;2022-07-23T08:33:18;19.40;99.90
17381;DHT22;8808;52.478;13.378;2022-07-23T08:35:47;19.50;99.90
17381;DHT22;8808;52.478;13.378;2022-07-23T08:38:17;19.60;99.90
17381;DHT22;8808;52.478;13.378;2022-07-23T08:40:45;19.40;99.90
17381;DHT22;8808;52.478;13.378;2022-07-23T08:43:13;19.20;99.90
17381;DHT22;8808;52.478;13.378;2022-07-23T08:45:41;19.30;99.90
17381;DHT22;8808;52.478;13.378;2022-07-23T08:48:11;21.40;99.90
17381;DHT22;8808;52.478;13.378;2022-07-23T08:50:42;21.90;99.90
17381;DHT22;8808;52.478;13.378;2022-07-23T08:53:10;21.70;99.90
17381;DHT22;8808;52.478;13.378;2022-07-23T08:55:37;22.80;99.90
17381;DHT22;8808;52.478;13.378;2022-07-23T08:58:04;22.80;99.90
17381;DHT22;8808;52.478;13.378;2022-07-23T09:00:32;22.40;99.90
17381;DHT22;8808;52.478;13.378;2022-07-23T09:02:59;21.20;99.90
17381;DHT22;8808;52.478;13.378;2022-07-23T09:05:26;22.50;99.90
17381;DHT22;8808;52.478;13.378;2022-07-23T09:08:13;21.40;99.90
17381;DHT22;8808;52.478;13.378;2022-07-23T09:10:49;20.90;99.90
17381;DHT22;8808;52.478;13.378;2022-07-23T09:13:34;21.00;99.90
17381;DHT22;8808;52.478;13.378;2022-07-23T09:16:04;21.10;99.90
17381;DHT22;8808;52.478;13.378;2022-07-23T09:18:40;21.30;99.90
17381;DHT22;8808;52.478;13.378;2022-07-23T09:21:11;21.70;99.90
17381;DHT22;8808;52.478;13.378;2022-07-23T09:23:42;21.90;99.90
17381;DHT22;8808;52.478;13.378;2022-07-23T09:26:34;21.70;99.90
17381;DHT22;8808;52.478;13.378;2022-07-23T09:29:05;21.40;99.90
17381;DHT22;8808;52.478;13.378;2022-07-23T09:31:35;21.20;99.90
17381;DHT22;8808;52.478;13.378;2022-07-23T09:34:10;21.20;99.90
17381;DHT22;8808;52.478;13.378;2022-07-23T09:36:37;20.80;99.90
17381;DHT22;8808;52.478;13.378;2022-07-23T09:39:06;20.60;99.90
17381;DHT22;8808;52.478;13.378;2022-07-23T09:41:38;20.60;99.90
17381;DHT22;8808;52.478;13.378;2022-07-23T09:44:10;20.70;99.90
17381;DHT22;8808;52.478;13.378;2022-07-23T09:46:37;20.90;99.90
17381;DHT22;8808;52.478;13.378;2022-07-23T09:49:17;21.10;99.90
17381;DHT22;8808;52.478;13.378;2022-07-23T09:51:51;22.00;99.90
17381;DHT22;8808;52.478;13.378;2022-07-23T09:54:24;21.80;99.90
17381;DHT22;8808;52.478;13.378;2022-07-23T09:56:52;21.70;99.90
17381;DHT22;8808;52.478;13.378;2022-07-23T09:59:23;22.00;99.90
17381;DHT22;8808;52.478;13.378;2022-07-23T10:01:52;21.90;99.90
17381;DHT22;8808;52.478;13.378;2022-07-23T10:06:52;22.60;99.90
17381;DHT22;8808;52.478;13.378;2022-07-23T10:09:25;22.90;99.90
17381;DHT22;8808;52.478;13.378;2022-07-23T10:11:55;22.70;99.90
17381;DHT22;8808;52.478;13.378;2022-07-23T10:14:26;23.00;99.90
17381;DHT22;8808;52.478;13.378;2022-07-23T10:16:55;23.00;99.90
17381;DHT22;8808;52.478;13.378;2022-07-23T10:19:23;22.40;99.90
17381;DHT22;8808;52.478;13.378;2022-07-23T10:21:52;22.50;99.90
17381;DHT22;8808;52.478;13.378;2022-07-23T10:24:36;22.30;99.90
17381;DHT22;8808;52.478;13.378;2022-07-23T10:30:03;22.90;99.90
17381;DHT22;8808;52.478;13.378;2022-07-23T10:32:38;22.70;99.90
17381;DHT22;8808;52.478;13.378;2022-07-23T10:35:10;22.50;99.90
17381;DHT22;8808;52.478;13.378;2022-07-23T10:37:42;22.40;99.90
17381;DHT22;8808;52.478;13.378;2022-07-23T10:40:14;22.60;99.90
17381;DHT22;8808;52.478;13.378;2022-07-23T10:42:43;22.60;99.90
17381;DHT22;8808;52.478;13.378;2022-07-23T10:45:25;22.70;99.90
17381;DHT22;8808;52.478;13.378;2022-07-23T10:47:53;22.70;99.90
17381;DHT22;8808;52.478;13.378;2022-07-23T10:50:23;22.80;99.90
17381;DHT22;8808;52.478;13.378;2022-07-23T10:53:10;22.70;99.90
17381;DHT22;8808;52.478;13.378;2022-07-23T10:55:48;22.80;99.90
17381;DHT22;8808;52.478;13.378;2022-07-23T10:58:45;23.30;99.90
17381;DHT22;8808;52.478;13.378;2022-07-23T11:01:33;23.60;99.90
17381;DHT22;8808;52.478;13.378;2022-07-23T11:04:02;23.50;99.90
17381;DHT22;8808;52.478;13.378;2022-07-23T11:07:07;23.70;99.90
17381;DHT22;8808;52.478;13.378;2022-07-23T11:09:39;23.30;99.90
17381;DHT22;8808;52.478;13.378;2022-07-23T11:12:31;23.20;99.90
17381;DHT22;8808;52.478;13.378;2022-07-23T11:14:59;23.10;99.90
17381;DHT22;8808;52.478;13.378;2022-07-23T11:17:28;23.30;99.90
17381;DHT22;8808;52.478;13.378;2022-07-23T11:20:15;23.50;99.90
17381;DHT22;8808;52.478;13.378;2022-07-23T11:22:48;23.20;99.90
17381;DHT22;8808;52.478;13.378;2022-07-23T11:25:33;23.60;99.90
17381;DHT22;8808;52.478;13.378;2022-07-23T11:28:12;23.50;99.90
17381;DHT22;8808;52.478;13.378;2022-07-23T11:30:41;23.30;99.90
17381;DHT22;8808;52.478;13.378;2022-07-23T11:33:26;23.60;99.90
17381;DHT22;8808;52.478;13.378;2022-07-23T11:36:03;23.80;99.90
17381;DHT22;8808;52.478;13.378;2022-07-23T11:38:31;24.00;99.90
17381;DHT22;8808;52.478;13.378;2022-07-23T11:40:59;24.10;99.90
17381;DHT22;8808;52.478;13.378;2022-07-23T11:43:26;24.20;99.90
17381;DHT22;8808;52.478;13.378;2022-07-23T11:45:56;24.10;99.90
17381;DHT22;8808;52.478;13.378;2022-07-23T11:48:26;24.40;99.90
17381;DHT22;8808;52.478;13.378;2022-07-23T11:50:55;24.40;99.90
17381;DHT22;8808;52.478;13.378;2022-07-23T11:53:23;24.60;99.90
17381;DHT22;8808;52.478;13.378;2022-07-23T11:55:51;24.20;99.90
17381;DHT22;8808;52.478;13.378;2022-07-23T11:58:18;24.40;99.90
17381;DHT22;8808;52.478;13.378;2022-07-23T12:00:45;24.60;99.90
17381;DHT22;8808;52.478;13.378;2022-07-23T12:03:12;24.80;99.90
17381;DHT22;8808;52.478;13.378;2022-07-23T12:05:41;24.60;99.90
17381;DHT22;8808;52.478;13.378;2022-07-23T12:08:09;24.60;99.90
17381;DHT22;8808;52.478;13.378;2022-07-23T12:10:37;24.70;99.90
17381;DHT22;8808;52.478;13.378;2022-07-23T12:13:07;24.30;99.90
17381;DHT22;8808;52.478;13.378;2022-07-23T12:15:38;23.90;99.90
17381;DHT22;8808;52.478;13.378;2022-07-23T12:18:09;24.20;99.90
17381;DHT22;8808;52.478;13.378;2022-07-23T12:20:38;23.80;99.90
17381;DHT22;8808;52.478;13.378;2022-07-23T12:23:08;23.70;99.90
17381;DHT22;8808;52.478;13.378;2022-07-23T12:25:37;23.50;99.90
17381;DHT22;8808;52.478;13.378;2022-07-23T12:28:07;23.80;99.90
17381;DHT22;8808;52.478;13.378;2022-07-23T12:30:38;23.70;99.90
17381;DHT22;8808;52.478;13.378;2022-07-23T12:33:06;23.60;99.90
17381;DHT22;8808;52.478;13.378;2022-07-23T12:35:36;23.60;99.90
17381;DHT22;8808;52.478;13.378;2022-07-23T12:38:06;24.00;99.90
17381;DHT22;8808;52.478;13.378;2022-07-23T12:40:36;23.80;99.90
17381;DHT22;8808;52.478;13.378;2022-07-23T12:43:06;23.80;99.90
17381;DHT22;8808;52.478;13.378;2022-07-23T12:45:45;23.80;99.90
17381;DHT22;8808;52.478;13.378;2022-07-23T12:48:17;24.00;99.90
17381;DHT22;8808;52.478;13.378;2022-07-23T12:50:52;24.00;99.90
17381;DHT22;8808;52.478;13.378;2022-07-23T12:53:22;24.20;99.90
17381;DHT22;8808;52.478;13.378;2022-07-23T12:55:56;24.30;99.90
17381;DHT22;8808;52.478;13.378;2022-07-23T12:58:24;24.50;99.90
17381;DHT22;8808;52.478;13.378;2022-07-23T13:01:01;24.70;99.90
17381;DHT22;8808;52.478;13.378;2022-07-23T13:03:32;24.60;99.90
17381;DHT22;8808;52.478;13.378;2022-07-23T13:06:01;24.80;99.90
17381;DHT22;8808;52.478;13.378;2022-07-23T13:08:31;25.00;99.90
17381;DHT22;8808;52.478;13.378;2022-07-23T13:10:59;25.10;99.90
17381;DHT22;8808;52.478;13.378;2022-07-23T13:13:28;24.90;99.90
17381;DHT22;8808;52.478;13.378;2022-07-23T13:15:57;25.20;99.90
17381;DHT22;8808;52.478;13.378;2022-07-23T13:18:24;25.30;99.90
17381;DHT22;8808;52.478;13.378;2022-07-23T13:20:52;25.30;99.90
17381;DHT22;8808;52.478;13.378;2022-07-23T13:23:19;25.30;99.90
17381;DHT22;8808;52.478;13.378;2022-07-23T13:25:48;25.30;99.90
17381;DHT22;8808;52.478;13.378;2022-07-23T13:28:16;25.00;99.90
17381;DHT22;8808;52.478;13.378;2022-07-23T13:30:44;24.80;99.90
17381;DHT22;8808;52.478;13.378;2022-07-23T13:33:12;24.60;99.90
17381;DHT22;8808;52.478;13.378;2022-07-23T13:35:38;24.50;99.90
17381;DHT22;8808;52.478;13.378;2022-07-23T13:38:06;24.20;99.90
17381;DHT22;8808;52.478;13.378;2022-07-23T13:40:35;24.30;99.90
17381;DHT22;8808;52.478;13.378;2022-07-23T13:43:06;24.50;99.90
17381;DHT22;8808;52.478;13.378;2022-07-23T13:45:33;24.50;99.90
17381;DHT22;8808;52.478;13.378;2022-07-23T13:48:00;24.40;99.90
17381;DHT22;8808;52.478;13.378;2022-07-23T13:50:27;24.40;99.90
17381;DHT22;8808;52.478;13.378;2022-07-23T13:52:54;24.70;99.90
17381;DHT22;8808;52.478;13.378;2022-07-23T13:55:21;24.80;99.90
17381;DHT22;8808;52.478;13.378;2022-07-23T13:57:48;24.70;99.90
17381;DHT22;8808;52.478;13.378;2022-07-23T14:00:16;24.90;99.90
17381;DHT22;8808;52.478;13.378;2022-07-23T14:02:44;24.80;99.90
17381;DHT22;8808;52.478;13.378;2022-07-23T14:05:11;24.80;99.90
17381;DHT22;8808;52.478;13.378;2022-07-23T14:07:39;24.70;99.90
17381;DHT22;8808;52.478;13.378;2022-07-23T14:10:08;24.60;99.90
17381;DHT22;8808;52.478;13.378;2022-07-23T14:12:36;24.70;99.90
17381;DHT22;8808;52.478;13.378;2022-07-23T14:15:05;24.60;99.90
17381;DHT22;8808;52.478;13.378;2022-07-23T14:17:36;24.60;99.90
17381;DHT22;8808;52.478;13.378;2022-07-23T14:20:05;24.40;99.90
17381;DHT22;8808;52.478;13.378;2022-07-23T14:22:32;24.30;99.90
17381;DHT22;8808;52.478;13.378;2022-07-23T14:25:00;24.20;99.90
17381;DHT22;8808;52.478;13.378;2022-07-23T14:27:27;24.40;99.90
17381;DHT22;8808;52.478;13.378;2022-07-23T14:29:55;24.60;99.90
17381;DHT22;8808;52.478;13.378;2022-07-23T14:32:22;24.40;99.90
17381;DHT22;8808;52.478;13.378;2022-07-23T14:34:51;24.30;99.90
17381;DHT22;8808;52.478;13.378;2022-07-23T14:37:18;24.10;99.90
17381;DHT22;8808;52.478;13.378;2022-07-23T14:39:46;24.20;99.90
17381;DHT22;8808;52.478;13.378;2022-07-23T14:42:13;24.30;99.90
17381;DHT22;8808;52.478;13.378;2022-07-23T14:44:40;24.50;99.90
17381;DHT22;8808;52.478;13.378;2022-07-23T14:47:08;24.60;99.90
17381;DHT22;8808;52.478;13.378;2022-07-23T14:49:35;24.20;99.90
17381;DHT22;8808;52.478;13.378;2022-07-23T14:52:06;24.40;99.90
17381;DHT22;8808;52.478;13.378;2022-07-23T14:54:33;24.40;99.90
17381;DHT22;8808;52.478;13.378;2022-07-23T14:57:01;24.50;99.90
17381;DHT22;8808;52.478;13.378;2022-07-23T14:59:29;24.60;99.90
17381;DHT22;8808;52.478;13.378;2022-07-23T15:01:57;24.50;99.90
17381;DHT22;8808;52.478;13.378;2022-07-23T15:04:24;24.30;99.90
17381;DHT22;8808;52.478;13.378;2022-07-23T15:06:51;24.60;99.90
17381;DHT22;8808;52.478;13.378;2022-07-23T15:09:20;24.40;99.90
17381;DHT22;8808;52.478;13.378;2022-07-23T15:11:47;24.30;99.90
17381;DHT22;8808;52.478;13.378;2022-07-23T15:14:14;24.50;99.90
17381;DHT22;8808;52.478;13.378;2022-07-23T15:16:42;24.70;99.90
17381;DHT22;8808;52.478;13.378;2022-07-23T15:19:08;24.80;99.90
17381;DHT22;8808;52.478;13.378;2022-07-23T15:21:35;24.70;99.90
17381;DHT22;8808;52.478;13.378;2022-07-23T15:24:02;24.70;99.90
17381;DHT22;8808;52.478;13.378;2022-07-23T15:26:31;24.50;99.90
17381;DHT22;8808;52.478;13.378;2022-07-23T15:28:58;24.50;99.90
17381;DHT22;8808;52.478;13.378;2022-07-23T15:31:25;24.10;99.90
17381;DHT22;8808;52.478;13.378;2022-07-23T15:33:52;24.00;99.90
17381;DHT22;8808;52.478;13.378;2022-07-23T15:36:20;24.30;99.90
17381;DHT22;8808;52.478;13.378;2022-07-23T15:38:47;24.40;99.90
17381;DHT22;8808;52.478;13.378;2022-07-23T15:41:14;24.40;99.90
17381;DHT22;8808;52.478;13.378;2022-07-23T15:43:42;24.30;99.90
17381;DHT22;8808;52.478;13.378;2022-07-23T15:46:09;24.50;99.90
17381;DHT22;8808;52.478;13.378;2022-07-23T15:48:37;24.50;99.90
17381;DHT22;8808;52.478;13.378;2022-07-23T15:51:04;24.40;99.90
17381;DHT22;8808;52.478;13.378;2022-07-23T15:53:31;24.50;99.90
17381;DHT22;8808;52.478;13.378;2022-07-23T15:55:58;24.30;99.90